Indian Mound, Tennessee
Current Conditions -  °F | °C
As of 12:58 PM on Tuesday 21 Oct 2014 (Local Time) from KHOP Reporting Station
Clear Clear  
Wind Chill: 69°   Ceiling: Unl
Heat Index: 69°   Visibility: 10mi
Dew Point: 46°   Wind: 10mph
Humidity: 44%   Direction: 310°NW
Pressure: 30.05"   Gusts: NA
Location:  36.5°N, 87.69°W
Report Text: KHOP 211758Z AUTO 31009KT 10SM CLR 21/08 A3005 RMK AO2 SLP175 T02060080 10209 20080 58007
Loading
Personal Weather Stations






























Interactive Weather Map
Tropical Storm Tracking
New forecast layout! Learn more

10-Day Weather Forecast

Advertisements
Track Severe Weather on mobile